sensor_id;sensor_type;location;lat;lon;timestamp;P1;durP1;ratioP1;P2;durP2;ratioP2
13085;SDS011;6609;49.882;8.664;2023-07-24T00:01:53;4.53;;;2.87;;
13085;SDS011;6609;49.882;8.664;2023-07-24T00:04:20;4.73;;;2.33;;
13085;SDS011;6609;49.882;8.664;2023-07-24T00:06:48;4.00;;;2.70;;
13085;SDS011;6609;49.882;8.664;2023-07-24T00:09:15;8.93;;;2.63;;
13085;SDS011;6609;49.882;8.664;2023-07-24T00:11:42;4.20;;;3.10;;
13085;SDS011;6609;49.882;8.664;2023-07-24T00:14:08;3.97;;;2.80;;
13085;SDS011;6609;49.882;8.664;2023-07-24T00:16:36;4.07;;;2.60;;
13085;SDS011;6609;49.882;8.664;2023-07-24T00:19:03;4.40;;;2.67;;
13085;SDS011;6609;49.882;8.664;2023-07-24T00:21:30;5.20;;;3.00;;
13085;SDS011;6609;49.882;8.664;2023-07-24T00:23:57;4.80;;;2.90;;
13085;SDS011;6609;49.882;8.664;2023-07-24T00:26:24;4.90;;;3.47;;
13085;SDS011;6609;49.882;8.664;2023-07-24T00:28:51;5.10;;;2.87;;
13085;SDS011;6609;49.882;8.664;2023-07-24T00:31:17;3.60;;;2.77;;
13085;SDS011;6609;49.882;8.664;2023-07-24T00:33:45;3.93;;;2.90;;
13085;SDS011;6609;49.882;8.664;2023-07-24T00:36:12;4.37;;;2.93;;
13085;SDS011;6609;49.882;8.664;2023-07-24T00:38:39;6.33;;;3.20;;
13085;SDS011;6609;49.882;8.664;2023-07-24T00:41:06;3.53;;;2.33;;
13085;SDS011;6609;49.882;8.664;2023-07-24T00:43:33;6.27;;;2.97;;
13085;SDS011;6609;49.882;8.664;2023-07-24T00:46:00;4.80;;;2.70;;
13085;SDS011;6609;49.882;8.664;2023-07-24T00:48:28;6.97;;;2.80;;
13085;SDS011;6609;49.882;8.664;2023-07-24T00:50:56;6.67;;;2.90;;
13085;SDS011;6609;49.882;8.664;2023-07-24T00:53:23;5.60;;;2.60;;
13085;SDS011;6609;49.882;8.664;2023-07-24T00:55:50;4.67;;;2.80;;
13085;SDS011;6609;49.882;8.664;2023-07-24T00:58:17;3.50;;;2.57;;
13085;SDS011;6609;49.882;8.664;2023-07-24T01:00:45;5.73;;;2.80;;
13085;SDS011;6609;49.882;8.664;2023-07-24T01:03:12;4.60;;;2.90;;
13085;SDS011;6609;49.882;8.664;2023-07-24T01:05:39;5.27;;;3.10;;
13085;SDS011;6609;49.882;8.664;2023-07-24T01:08:07;4.70;;;3.10;;
13085;SDS011;6609;49.882;8.664;2023-07-24T01:10:34;5.50;;;3.10;;
13085;SDS011;6609;49.882;8.664;2023-07-24T01:13:02;4.33;;;2.67;;
13085;SDS011;6609;49.882;8.664;2023-07-24T01:15:34;4.80;;;3.03;;
13085;SDS011;6609;49.882;8.664;2023-07-24T01:18:05;6.03;;;3.10;;
13085;SDS011;6609;49.882;8.664;2023-07-24T01:20:35;5.50;;;3.23;;
13085;SDS011;6609;49.882;8.664;2023-07-24T01:23:23;5.33;;;3.33;;
13085;SDS011;6609;49.882;8.664;2023-07-24T01:26:05;4.30;;;3.03;;
13085;SDS011;6609;49.882;8.664;2023-07-24T01:28:32;6.30;;;3.30;;
13085;SDS011;6609;49.882;8.664;2023-07-24T01:30:59;5.37;;;2.77;;
13085;SDS011;6609;49.882;8.664;2023-07-24T01:33:26;5.03;;;3.20;;
13085;SDS011;6609;49.882;8.664;2023-07-24T01:35:54;5.57;;;3.50;;
13085;SDS011;6609;49.882;8.664;2023-07-24T01:38:21;6.60;;;3.57;;
13085;SDS011;6609;49.882;8.664;2023-07-24T01:40:50;4.90;;;2.97;;
13085;SDS011;6609;49.882;8.664;2023-07-24T01:43:20;5.23;;;3.47;;
13085;SDS011;6609;49.882;8.664;2023-07-24T01:45:46;6.20;;;3.70;;
13085;SDS011;6609;49.882;8.664;2023-07-24T01:48:13;4.20;;;2.83;;
13085;SDS011;6609;49.882;8.664;2023-07-24T01:50:40;5.10;;;3.27;;
13085;SDS011;6609;49.882;8.664;2023-07-24T01:53:07;4.43;;;2.90;;
13085;SDS011;6609;49.882;8.664;2023-07-24T01:55:34;3.97;;;2.70;;
13085;SDS011;6609;49.882;8.664;2023-07-24T01:58:01;5.67;;;3.33;;
13085;SDS011;6609;49.882;8.664;2023-07-24T02:00:29;5.70;;;3.43;;
13085;SDS011;6609;49.882;8.664;2023-07-24T02:02:56;6.37;;;3.83;;
13085;SDS011;6609;49.882;8.664;2023-07-24T02:05:23;5.53;;;3.43;;
13085;SDS011;6609;49.882;8.664;2023-07-24T02:07:50;7.13;;;3.77;;
13085;SDS011;6609;49.882;8.664;2023-07-24T02:10:16;5.80;;;3.67;;
13085;SDS011;6609;49.882;8.664;2023-07-24T02:12:43;7.03;;;3.90;;
13085;SDS011;6609;49.882;8.664;2023-07-24T02:15:10;7.27;;;3.73;;
13085;SDS011;6609;49.882;8.664;2023-07-24T02:17:38;5.83;;;3.57;;
13085;SDS011;6609;49.882;8.664;2023-07-24T02:20:05;7.23;;;3.60;;
13085;SDS011;6609;49.882;8.664;2023-07-24T02:22:33;6.23;;;3.50;;
13085;SDS011;6609;49.882;8.664;2023-07-24T02:25:00;4.80;;;2.83;;
13085;SDS011;6609;49.882;8.664;2023-07-24T02:27:29;11.00;;;3.50;;
13085;SDS011;6609;49.882;8.664;2023-07-24T02:29:59;8.23;;;3.73;;
13085;SDS011;6609;49.882;8.664;2023-07-24T02:32:26;5.13;;;3.47;;
13085;SDS011;6609;49.882;8.664;2023-07-24T02:34:54;7.47;;;3.50;;
13085;SDS011;6609;49.882;8.664;2023-07-24T02:37:21;8.20;;;3.60;;
13085;SDS011;6609;49.882;8.664;2023-07-24T02:39:47;9.30;;;3.67;;
13085;SDS011;6609;49.882;8.664;2023-07-24T02:42:14;5.90;;;3.60;;
13085;SDS011;6609;49.882;8.664;2023-07-24T02:44:41;7.00;;;3.83;;
13085;SDS011;6609;49.882;8.664;2023-07-24T02:47:08;6.23;;;3.37;;
13085;SDS011;6609;49.882;8.664;2023-07-24T02:49:35;6.67;;;3.73;;
13085;SDS011;6609;49.882;8.664;2023-07-24T02:52:03;6.77;;;4.27;;
13085;SDS011;6609;49.882;8.664;2023-07-24T02:54:30;7.87;;;4.10;;
13085;SDS011;6609;49.882;8.664;2023-07-24T02:56:57;7.20;;;3.53;;
13085;SDS011;6609;49.882;8.664;2023-07-24T02:59:24;6.70;;;3.77;;
13085;SDS011;6609;49.882;8.664;2023-07-24T03:01:51;6.63;;;3.83;;
13085;SDS011;6609;49.882;8.664;2023-07-24T03:04:18;7.13;;;3.63;;
13085;SDS011;6609;49.882;8.664;2023-07-24T03:06:45;5.60;;;3.60;;
13085;SDS011;6609;49.882;8.664;2023-07-24T03:09:13;5.57;;;3.73;;
13085;SDS011;6609;49.882;8.664;2023-07-24T03:11:40;8.37;;;4.10;;
13085;SDS011;6609;49.882;8.664;2023-07-24T03:14:07;8.40;;;4.13;;
13085;SDS011;6609;49.882;8.664;2023-07-24T03:16:34;6.37;;;3.80;;
13085;SDS011;6609;49.882;8.664;2023-07-24T03:19:01;7.87;;;3.83;;
13085;SDS011;6609;49.882;8.664;2023-07-24T03:21:28;6.77;;;4.13;;
13085;SDS011;6609;49.882;8.664;2023-07-24T03:23:55;6.43;;;3.80;;
13085;SDS011;6609;49.882;8.664;2023-07-24T03:26:23;8.63;;;3.93;;
13085;SDS011;6609;49.882;8.664;2023-07-24T03:28:50;6.03;;;3.50;;
13085;SDS011;6609;49.882;8.664;2023-07-24T03:31:17;8.70;;;3.93;;
13085;SDS011;6609;49.882;8.664;2023-07-24T03:33:44;7.47;;;3.77;;
13085;SDS011;6609;49.882;8.664;2023-07-24T03:36:11;6.53;;;3.77;;
13085;SDS011;6609;49.882;8.664;2023-07-24T03:38:37;9.13;;;4.30;;
13085;SDS011;6609;49.882;8.664;2023-07-24T03:41:04;6.83;;;4.10;;
13085;SDS011;6609;49.882;8.664;2023-07-24T03:43:33;6.50;;;3.60;;
13085;SDS011;6609;49.882;8.664;2023-07-24T03:45:59;10.63;;;5.27;;
13085;SDS011;6609;49.882;8.664;2023-07-24T03:48:26;7.30;;;4.10;;
13085;SDS011;6609;49.882;8.664;2023-07-24T03:50:57;6.57;;;4.00;;
13085;SDS011;6609;49.882;8.664;2023-07-24T03:53:25;9.50;;;4.60;;
13085;SDS011;6609;49.882;8.664;2023-07-24T03:55:52;7.77;;;4.03;;
13085;SDS011;6609;49.882;8.664;2023-07-24T03:58:19;7.33;;;3.93;;
13085;SDS011;6609;49.882;8.664;2023-07-24T04:00:47;9.23;;;4.57;;
13085;SDS011;6609;49.882;8.664;2023-07-24T04:03:14;10.93;;;5.50;;
13085;SDS011;6609;49.882;8.664;2023-07-24T04:05:41;8.10;;;4.20;;
13085;SDS011;6609;49.882;8.664;2023-07-24T04:08:08;8.63;;;4.33;;
13085;SDS011;6609;49.882;8.664;2023-07-24T04:10:35;7.60;;;4.07;;
13085;SDS011;6609;49.882;8.664;2023-07-24T04:13:02;8.30;;;4.13;;
13085;SDS011;6609;49.882;8.664;2023-07-24T04:15:29;12.07;;;5.67;;
13085;SDS011;6609;49.882;8.664;2023-07-24T04:17:57;9.50;;;4.90;;
13085;SDS011;6609;49.882;8.664;2023-07-24T04:20:24;9.67;;;5.20;;
13085;SDS011;6609;49.882;8.664;2023-07-24T04:22:51;8.43;;;4.53;;
13085;SDS011;6609;49.882;8.664;2023-07-24T04:25:18;7.57;;;4.17;;
13085;SDS011;6609;49.882;8.664;2023-07-24T04:27:45;9.17;;;4.33;;
13085;SDS011;6609;49.882;8.664;2023-07-24T04:30:12;9.20;;;4.80;;
13085;SDS011;6609;49.882;8.664;2023-07-24T04:32:39;7.83;;;4.23;;
13085;SDS011;6609;49.882;8.664;2023-07-24T04:35:08;16.83;;;4.73;;
13085;SDS011;6609;49.882;8.664;2023-07-24T04:37:35;9.83;;;4.50;;
13085;SDS011;6609;49.882;8.664;2023-07-24T04:40:02;8.43;;;4.87;;
13085;SDS011;6609;49.882;8.664;2023-07-24T04:42:30;9.90;;;4.67;;
13085;SDS011;6609;49.882;8.664;2023-07-24T04:44:57;10.27;;;4.90;;
13085;SDS011;6609;49.882;8.664;2023-07-24T04:47:24;7.97;;;4.43;;
13085;SDS011;6609;49.882;8.664;2023-07-24T04:49:51;8.50;;;4.50;;
13085;SDS011;6609;49.882;8.664;2023-07-24T04:52:19;7.53;;;4.23;;
13085;SDS011;6609;49.882;8.664;2023-07-24T04:54:46;9.37;;;4.87;;
13085;SDS011;6609;49.882;8.664;2023-07-24T04:57:13;10.60;;;5.27;;
13085;SDS011;6609;49.882;8.664;2023-07-24T04:59:40;8.17;;;4.50;;
13085;SDS011;6609;49.882;8.664;2023-07-24T05:02:07;10.77;;;5.10;;
13085;SDS011;6609;49.882;8.664;2023-07-24T05:04:34;9.50;;;4.97;;
13085;SDS011;6609;49.882;8.664;2023-07-24T05:07:00;10.60;;;4.80;;
13085;SDS011;6609;49.882;8.664;2023-07-24T05:09:29;6.80;;;4.27;;
13085;SDS011;6609;49.882;8.664;2023-07-24T05:11:56;9.13;;;4.70;;
13085;SDS011;6609;49.882;8.664;2023-07-24T05:14:22;11.30;;;4.97;;
13085;SDS011;6609;49.882;8.664;2023-07-24T05:16:49;5.67;;;3.73;;
13085;SDS011;6609;49.882;8.664;2023-07-24T05:19:16;8.33;;;4.60;;
13085;SDS011;6609;49.882;8.664;2023-07-24T05:21:43;10.17;;;4.30;;
13085;SDS011;6609;49.882;8.664;2023-07-24T05:24:10;6.90;;;3.70;;
13085;SDS011;6609;49.882;8.664;2023-07-24T05:26:38;12.40;;;5.27;;
13085;SDS011;6609;49.882;8.664;2023-07-24T05:29:05;8.50;;;5.00;;
13085;SDS011;6609;49.882;8.664;2023-07-24T05:31:33;8.87;;;4.63;;
13085;SDS011;6609;49.882;8.664;2023-07-24T05:34:01;7.53;;;4.40;;
13085;SDS011;6609;49.882;8.664;2023-07-24T05:36:28;10.07;;;4.23;;
13085;SDS011;6609;49.882;8.664;2023-07-24T05:38:55;9.47;;;5.37;;
13085;SDS011;6609;49.882;8.664;2023-07-24T05:41:23;12.17;;;5.17;;
13085;SDS011;6609;49.882;8.664;2023-07-24T05:43:51;12.63;;;5.17;;
13085;SDS011;6609;49.882;8.664;2023-07-24T05:46:18;7.97;;;4.30;;
13085;SDS011;6609;49.882;8.664;2023-07-24T05:48:46;9.57;;;4.73;;
13085;SDS011;6609;49.882;8.664;2023-07-24T05:51:13;8.67;;;4.73;;
13085;SDS011;6609;49.882;8.664;2023-07-24T05:53:40;7.70;;;4.67;;
13085;SDS011;6609;49.882;8.664;2023-07-24T05:56:06;8.70;;;5.23;;
13085;SDS011;6609;49.882;8.664;2023-07-24T05:58:33;11.40;;;5.27;;
13085;SDS011;6609;49.882;8.664;2023-07-24T06:01:01;9.97;;;5.20;;
13085;SDS011;6609;49.882;8.664;2023-07-24T06:03:28;12.43;;;5.90;;
13085;SDS011;6609;49.882;8.664;2023-07-24T06:05:55;9.60;;;5.90;;
13085;SDS011;6609;49.882;8.664;2023-07-24T06:08:22;11.20;;;5.30;;
13085;SDS011;6609;49.882;8.664;2023-07-24T06:10:50;13.20;;;6.10;;
13085;SDS011;6609;49.882;8.664;2023-07-24T06:13:17;16.27;;;6.13;;
13085;SDS011;6609;49.882;8.664;2023-07-24T06:15:44;11.00;;;5.97;;
13085;SDS011;6609;49.882;8.664;2023-07-24T06:18:12;9.63;;;5.70;;
13085;SDS011;6609;49.882;8.664;2023-07-24T06:20:39;13.07;;;6.10;;
13085;SDS011;6609;49.882;8.664;2023-07-24T06:23:07;12.03;;;6.17;;
13085;SDS011;6609;49.882;8.664;2023-07-24T06:25:34;13.80;;;6.90;;
13085;SDS011;6609;49.882;8.664;2023-07-24T06:28:01;12.40;;;7.07;;
13085;SDS011;6609;49.882;8.664;2023-07-24T06:30:28;10.90;;;6.30;;
13085;SDS011;6609;49.882;8.664;2023-07-24T06:32:55;14.20;;;6.43;;
13085;SDS011;6609;49.882;8.664;2023-07-24T06:35:23;13.23;;;7.37;;
13085;SDS011;6609;49.882;8.664;2023-07-24T06:37:50;11.40;;;6.00;;
13085;SDS011;6609;49.882;8.664;2023-07-24T06:40:17;10.27;;;5.40;;
13085;SDS011;6609;49.882;8.664;2023-07-24T06:42:45;10.50;;;5.80;;
13085;SDS011;6609;49.882;8.664;2023-07-24T06:45:12;8.80;;;5.80;;
13085;SDS011;6609;49.882;8.664;2023-07-24T06:47:38;10.07;;;6.07;;
13085;SDS011;6609;49.882;8.664;2023-07-24T06:50:06;9.50;;;5.70;;
13085;SDS011;6609;49.882;8.664;2023-07-24T06:52:35;11.63;;;6.20;;
13085;SDS011;6609;49.882;8.664;2023-07-24T06:55:02;10.83;;;6.30;;
13085;SDS011;6609;49.882;8.664;2023-07-24T06:57:29;12.83;;;6.60;;
13085;SDS011;6609;49.882;8.664;2023-07-24T06:59:56;10.60;;;6.37;;
13085;SDS011;6609;49.882;8.664;2023-07-24T07:02:23;12.23;;;6.83;;
13085;SDS011;6609;49.882;8.664;2023-07-24T07:04:50;10.93;;;6.43;;
13085;SDS011;6609;49.882;8.664;2023-07-24T07:07:17;14.73;;;7.03;;
13085;SDS011;6609;49.882;8.664;2023-07-24T07:09:45;14.60;;;7.17;;
13085;SDS011;6609;49.882;8.664;2023-07-24T07:12:12;12.63;;;7.47;;
13085;SDS011;6609;49.882;8.664;2023-07-24T07:14:39;10.33;;;6.23;;
13085;SDS011;6609;49.882;8.664;2023-07-24T07:17:06;11.17;;;6.60;;
13085;SDS011;6609;49.882;8.664;2023-07-24T07:19:33;17.37;;;6.50;;
13085;SDS011;6609;49.882;8.664;2023-07-24T07:22:01;13.07;;;6.70;;
13085;SDS011;6609;49.882;8.664;2023-07-24T07:24:28;11.07;;;6.83;;
13085;SDS011;6609;49.882;8.664;2023-07-24T07:26:56;10.13;;;6.20;;
13085;SDS011;6609;49.882;8.664;2023-07-24T07:29:23;10.80;;;6.37;;
13085;SDS011;6609;49.882;8.664;2023-07-24T07:31:50;12.67;;;6.63;;
13085;SDS011;6609;49.882;8.664;2023-07-24T07:34:17;12.33;;;7.07;;
13085;SDS011;6609;49.882;8.664;2023-07-24T07:36:44;11.77;;;7.23;;
13085;SDS011;6609;49.882;8.664;2023-07-24T07:39:10;11.97;;;7.30;;
13085;SDS011;6609;49.882;8.664;2023-07-24T07:41:37;11.25;;;6.75;;
13085;SDS011;6609;49.882;8.664;2023-07-24T07:44:06;12.50;;;6.83;;
13085;SDS011;6609;49.882;8.664;2023-07-24T07:46:32;14.43;;;7.50;;
13085;SDS011;6609;49.882;8.664;2023-07-24T07:48:59;13.37;;;7.17;;
13085;SDS011;6609;49.882;8.664;2023-07-24T07:51:26;10.97;;;6.50;;
13085;SDS011;6609;49.882;8.664;2023-07-24T07:53:53;12.63;;;6.93;;
13085;SDS011;6609;49.882;8.664;2023-07-24T07:56:20;10.90;;;6.57;;
13085;SDS011;6609;49.882;8.664;2023-07-24T07:58:48;13.07;;;6.77;;
13085;SDS011;6609;49.882;8.664;2023-07-24T08:01:16;13.43;;;7.37;;
13085;SDS011;6609;49.882;8.664;2023-07-24T08:03:43;18.27;;;7.57;;
13085;SDS011;6609;49.882;8.664;2023-07-24T08:06:09;10.63;;;6.00;;
13085;SDS011;6609;49.882;8.664;2023-07-24T08:08:37;12.63;;;5.97;;
13085;SDS011;6609;49.882;8.664;2023-07-24T08:11:04;11.47;;;6.03;;
13085;SDS011;6609;49.882;8.664;2023-07-24T08:13:32;14.00;;;6.20;;
13085;SDS011;6609;49.882;8.664;2023-07-24T08:15:59;15.27;;;6.83;;
13085;SDS011;6609;49.882;8.664;2023-07-24T08:18:29;11.70;;;5.50;;
13085;SDS011;6609;49.882;8.664;2023-07-24T08:20:56;10.43;;;6.13;;
13085;SDS011;6609;49.882;8.664;2023-07-24T08:23:23;11.40;;;5.67;;
13085;SDS011;6609;49.882;8.664;2023-07-24T08:25:50;13.90;;;6.37;;
13085;SDS011;6609;49.882;8.664;2023-07-24T08:28:18;10.27;;;5.43;;
13085;SDS011;6609;49.882;8.664;2023-07-24T08:30:44;13.43;;;5.73;;
13085;SDS011;6609;49.882;8.664;2023-07-24T08:33:12;11.87;;;5.17;;
13085;SDS011;6609;49.882;8.664;2023-07-24T08:35:40;9.83;;;5.27;;
13085;SDS011;6609;49.882;8.664;2023-07-24T08:38:08;8.93;;;5.90;;
13085;SDS011;6609;49.882;8.664;2023-07-24T08:40:35;12.60;;;6.13;;
13085;SDS011;6609;49.882;8.664;2023-07-24T08:43:02;16.83;;;6.43;;
13085;SDS011;6609;49.882;8.664;2023-07-24T08:45:30;13.83;;;5.60;;
13085;SDS011;6609;49.882;8.664;2023-07-24T08:47:57;13.60;;;5.67;;
13085;SDS011;6609;49.882;8.664;2023-07-24T08:50:25;17.03;;;6.43;;
13085;SDS011;6609;49.882;8.664;2023-07-24T08:52:54;13.50;;;6.97;;
13085;SDS011;6609;49.882;8.664;2023-07-24T08:55:22;17.40;;;6.90;;
13085;SDS011;6609;49.882;8.664;2023-07-24T08:57:49;13.23;;;6.13;;
13085;SDS011;6609;49.882;8.664;2023-07-24T09:00:17;12.27;;;6.20;;
13085;SDS011;6609;49.882;8.664;2023-07-24T09:02:44;12.83;;;6.43;;
13085;SDS011;6609;49.882;8.664;2023-07-24T09:05:11;13.37;;;7.23;;
13085;SDS011;6609;49.882;8.664;2023-07-24T09:07:40;12.47;;;5.87;;
13085;SDS011;6609;49.882;8.664;2023-07-24T09:10:08;15.17;;;6.57;;
13085;SDS011;6609;49.882;8.664;2023-07-24T09:12:36;13.30;;;5.37;;
13085;SDS011;6609;49.882;8.664;2023-07-24T09:15:04;11.03;;;5.40;;
13085;SDS011;6609;49.882;8.664;2023-07-24T09:17:31;9.97;;;5.13;;
13085;SDS011;6609;49.882;8.664;2023-07-24T09:19:58;11.27;;;5.70;;
13085;SDS011;6609;49.882;8.664;2023-07-24T09:22:26;13.80;;;5.17;;
13085;SDS011;6609;49.882;8.664;2023-07-24T09:24:54;12.53;;;5.87;;
13085;SDS011;6609;49.882;8.664;2023-07-24T09:27:24;8.37;;;5.67;;
13085;SDS011;6609;49.882;8.664;2023-07-24T09:29:52;12.27;;;5.80;;
13085;SDS011;6609;49.882;8.664;2023-07-24T09:32:19;10.83;;;5.80;;
13085;SDS011;6609;49.882;8.664;2023-07-24T09:34:47;12.57;;;6.07;;
13085;SDS011;6609;49.882;8.664;2023-07-24T09:37:25;11.37;;;5.60;;
13085;SDS011;6609;49.882;8.664;2023-07-24T09:39:52;14.23;;;6.57;;
13085;SDS011;6609;49.882;8.664;2023-07-24T09:42:28;12.77;;;5.77;;
13085;SDS011;6609;49.882;8.664;2023-07-24T09:44:55;12.63;;;5.47;;
13085;SDS011;6609;49.882;8.664;2023-07-24T09:47:22;11.67;;;6.10;;
13085;SDS011;6609;49.882;8.664;2023-07-24T09:49:50;11.03;;;5.67;;
13085;SDS011;6609;49.882;8.664;2023-07-24T09:52:18;9.80;;;5.47;;
13085;SDS011;6609;49.882;8.664;2023-07-24T09:54:47;11.67;;;5.80;;
13085;SDS011;6609;49.882;8.664;2023-07-24T09:57:15;13.13;;;6.17;;
13085;SDS011;6609;49.882;8.664;2023-07-24T09:59:44;12.13;;;6.27;;
13085;SDS011;6609;49.882;8.664;2023-07-24T10:02:12;10.20;;;6.37;;
13085;SDS011;6609;49.882;8.664;2023-07-24T10:04:39;10.63;;;6.40;;
13085;SDS011;6609;49.882;8.664;2023-07-24T10:07:06;11.93;;;6.30;;
13085;SDS011;6609;49.882;8.664;2023-07-24T10:09:33;8.50;;;5.60;;
13085;SDS011;6609;49.882;8.664;2023-07-24T10:12:01;11.33;;;5.90;;
13085;SDS011;6609;49.882;8.664;2023-07-24T10:14:29;13.83;;;6.37;;
13085;SDS011;6609;49.882;8.664;2023-07-24T10:16:58;14.33;;;6.83;;
13085;SDS011;6609;49.882;8.664;2023-07-24T10:19:24;9.67;;;5.67;;
13085;SDS011;6609;49.882;8.664;2023-07-24T10:22:02;12.13;;;7.07;;
13085;SDS011;6609;49.882;8.664;2023-07-24T10:24:29;14.67;;;6.77;;
13085;SDS011;6609;49.882;8.664;2023-07-24T10:26:56;8.60;;;5.77;;
13085;SDS011;6609;49.882;8.664;2023-07-24T10:29:24;10.07;;;6.43;;
13085;SDS011;6609;49.882;8.664;2023-07-24T10:31:54;10.63;;;5.47;;
13085;SDS011;6609;49.882;8.664;2023-07-24T10:34:22;10.30;;;5.67;;
13085;SDS011;6609;49.882;8.664;2023-07-24T10:36:50;12.07;;;6.20;;
13085;SDS011;6609;49.882;8.664;2023-07-24T10:39:17;10.97;;;5.87;;
13085;SDS011;6609;49.882;8.664;2023-07-24T10:41:45;9.07;;;6.03;;
13085;SDS011;6609;49.882;8.664;2023-07-24T10:44:12;8.20;;;5.37;;
13085;SDS011;6609;49.882;8.664;2023-07-24T10:46:40;10.07;;;5.73;;
13085;SDS011;6609;49.882;8.664;2023-07-24T10:49:07;9.17;;;5.57;;
13085;SDS011;6609;49.882;8.664;2023-07-24T10:51:35;11.07;;;5.40;;
13085;SDS011;6609;49.882;8.664;2023-07-24T10:54:03;11.83;;;6.40;;
13085;SDS011;6609;49.882;8.664;2023-07-24T10:56:31;12.27;;;6.07;;
13085;SDS011;6609;49.882;8.664;2023-07-24T10:59:02;12.30;;;6.37;;
13085;SDS011;6609;49.882;8.664;2023-07-24T11:01:30;10.53;;;6.07;;
13085;SDS011;6609;49.882;8.664;2023-07-24T11:03:57;13.53;;;6.13;;
13085;SDS011;6609;49.882;8.664;2023-07-24T11:06:24;9.40;;;5.40;;
13085;SDS011;6609;49.882;8.664;2023-07-24T11:08:53;9.33;;;5.80;;
13085;SDS011;6609;49.882;8.664;2023-07-24T11:11:21;10.17;;;6.03;;
13085;SDS011;6609;49.882;8.664;2023-07-24T11:13:48;8.17;;;5.80;;
13085;SDS011;6609;49.882;8.664;2023-07-24T11:16:16;9.23;;;5.67;;
13085;SDS011;6609;49.882;8.664;2023-07-24T11:18:44;9.03;;;6.47;;
13085;SDS011;6609;49.882;8.664;2023-07-24T11:21:12;13.87;;;6.93;;
13085;SDS011;6609;49.882;8.664;2023-07-24T11:23:44;8.30;;;5.77;;
13085;SDS011;6609;49.882;8.664;2023-07-24T11:26:12;14.37;;;6.80;;
13085;SDS011;6609;49.882;8.664;2023-07-24T11:28:40;9.97;;;6.40;;
13085;SDS011;6609;49.882;8.664;2023-07-24T11:31:07;11.83;;;6.53;;
13085;SDS011;6609;49.882;8.664;2023-07-24T11:33:34;10.70;;;6.23;;
13085;SDS011;6609;49.882;8.664;2023-07-24T11:36:02;10.97;;;6.30;;
13085;SDS011;6609;49.882;8.664;2023-07-24T11:38:29;11.63;;;6.17;;
13085;SDS011;6609;49.882;8.664;2023-07-24T11:40:56;14.50;;;6.57;;
13085;SDS011;6609;49.882;8.664;2023-07-24T11:43:24;11.17;;;5.87;;
13085;SDS011;6609;49.882;8.664;2023-07-24T11:45:52;11.23;;;5.73;;
13085;SDS011;6609;49.882;8.664;2023-07-24T11:48:20;9.60;;;5.93;;
13085;SDS011;6609;49.882;8.664;2023-07-24T11:50:48;12.50;;;6.70;;
13085;SDS011;6609;49.882;8.664;2023-07-24T11:53:21;12.17;;;6.13;;
13085;SDS011;6609;49.882;8.664;2023-07-24T11:55:48;9.10;;;5.30;;
13085;SDS011;6609;49.882;8.664;2023-07-24T11:58:16;9.53;;;5.93;;
13085;SDS011;6609;49.882;8.664;2023-07-24T12:00:45;10.00;;;5.70;;
13085;SDS011;6609;49.882;8.664;2023-07-24T12:03:12;10.50;;;5.67;;
13085;SDS011;6609;49.882;8.664;2023-07-24T12:05:39;8.77;;;5.63;;
13085;SDS011;6609;49.882;8.664;2023-07-24T12:08:07;9.17;;;5.27;;
13085;SDS011;6609;49.882;8.664;2023-07-24T12:10:35;6.10;;;4.23;;
13085;SDS011;6609;49.882;8.664;2023-07-24T12:13:03;11.13;;;4.93;;
13085;SDS011;6609;49.882;8.664;2023-07-24T12:15:31;9.23;;;4.70;;
13085;SDS011;6609;49.882;8.664;2023-07-24T12:18:00;8.23;;;4.37;;
13085;SDS011;6609;49.882;8.664;2023-07-24T12:20:28;9.23;;;4.20;;
13085;SDS011;6609;49.882;8.664;2023-07-24T12:22:55;7.03;;;4.53;;
13085;SDS011;6609;49.882;8.664;2023-07-24T12:25:22;7.07;;;4.43;;
13085;SDS011;6609;49.882;8.664;2023-07-24T12:27:50;9.83;;;4.47;;
13085;SDS011;6609;49.882;8.664;2023-07-24T12:30:17;11.03;;;5.20;;
13085;SDS011;6609;49.882;8.664;2023-07-24T12:32:44;7.93;;;4.83;;
13085;SDS011;6609;49.882;8.664;2023-07-24T12:35:13;15.60;;;6.03;;
13085;SDS011;6609;49.882;8.664;2023-07-24T12:37:39;11.27;;;5.40;;
13085;SDS011;6609;49.882;8.664;2023-07-24T12:40:07;7.37;;;4.00;;
13085;SDS011;6609;49.882;8.664;2023-07-24T12:42:35;9.40;;;4.53;;
13085;SDS011;6609;49.882;8.664;2023-07-24T12:45:02;9.60;;;5.20;;
13085;SDS011;6609;49.882;8.664;2023-07-24T12:47:29;9.60;;;5.10;;
13085;SDS011;6609;49.882;8.664;2023-07-24T12:49:56;7.97;;;4.67;;
13085;SDS011;6609;49.882;8.664;2023-07-24T12:52:25;9.93;;;5.70;;
13085;SDS011;6609;49.882;8.664;2023-07-24T12:54:52;9.10;;;4.90;;
13085;SDS011;6609;49.882;8.664;2023-07-24T12:57:19;10.17;;;5.80;;
13085;SDS011;6609;49.882;8.664;2023-07-24T12:59:46;10.23;;;5.23;;
13085;SDS011;6609;49.882;8.664;2023-07-24T13:02:13;8.57;;;5.70;;
13085;SDS011;6609;49.882;8.664;2023-07-24T13:04:40;8.60;;;5.10;;
13085;SDS011;6609;49.882;8.664;2023-07-24T13:07:06;13.47;;;6.03;;
13085;SDS011;6609;49.882;8.664;2023-07-24T13:09:35;12.47;;;5.40;;
13085;SDS011;6609;49.882;8.664;2023-07-24T13:12:02;11.20;;;6.07;;
13085;SDS011;6609;49.882;8.664;2023-07-24T13:14:29;13.20;;;5.77;;
13085;SDS011;6609;49.882;8.664;2023-07-24T13:16:55;12.53;;;5.43;;
13085;SDS011;6609;49.882;8.664;2023-07-24T13:19:22;8.00;;;5.23;;
13085;SDS011;6609;49.882;8.664;2023-07-24T13:21:49;8.87;;;5.20;;
13085;SDS011;6609;49.882;8.664;2023-07-24T13:24:17;9.80;;;6.00;;
13085;SDS011;6609;49.882;8.664;2023-07-24T13:26:45;12.83;;;5.63;;
13085;SDS011;6609;49.882;8.664;2023-07-24T13:29:12;9.47;;;5.70;;
13085;SDS011;6609;49.882;8.664;2023-07-24T13:31:40;13.43;;;6.30;;
13085;SDS011;6609;49.882;8.664;2023-07-24T13:34:07;11.40;;;6.43;;
13085;SDS011;6609;49.882;8.664;2023-07-24T13:36:33;14.33;;;6.87;;
13085;SDS011;6609;49.882;8.664;2023-07-24T13:39:00;12.40;;;6.33;;
13085;SDS011;6609;49.882;8.664;2023-07-24T13:41:27;14.53;;;7.23;;
13085;SDS011;6609;49.882;8.664;2023-07-24T13:43:56;16.47;;;7.37;;
13085;SDS011;6609;49.882;8.664;2023-07-24T13:46:23;14.13;;;6.73;;
13085;SDS011;6609;49.882;8.664;2023-07-24T13:48:49;17.63;;;6.50;;
13085;SDS011;6609;49.882;8.664;2023-07-24T13:51:16;14.07;;;6.87;;
13085;SDS011;6609;49.882;8.664;2023-07-24T13:53:43;11.00;;;6.30;;
13085;SDS011;6609;49.882;8.664;2023-07-24T13:56:12;14.40;;;6.73;;
13085;SDS011;6609;49.882;8.664;2023-07-24T13:58:39;17.20;;;8.30;;
13085;SDS011;6609;49.882;8.664;2023-07-24T14:01:07;12.07;;;6.77;;
13085;SDS011;6609;49.882;8.664;2023-07-24T14:03:34;28.03;;;8.83;;
13085;SDS011;6609;49.882;8.664;2023-07-24T14:06:01;11.60;;;6.17;;
13085;SDS011;6609;49.882;8.664;2023-07-24T14:08:28;15.67;;;7.13;;
13085;SDS011;6609;49.882;8.664;2023-07-24T14:10:55;15.67;;;6.97;;
13085;SDS011;6609;49.882;8.664;2023-07-24T14:13:22;16.63;;;7.77;;
13085;SDS011;6609;49.882;8.664;2023-07-24T14:15:49;16.80;;;9.00;;
13085;SDS011;6609;49.882;8.664;2023-07-24T14:18:17;15.37;;;8.60;;
13085;SDS011;6609;49.882;8.664;2023-07-24T14:20:44;16.10;;;8.37;;
13085;SDS011;6609;49.882;8.664;2023-07-24T14:23:12;10.47;;;6.03;;
13085;SDS011;6609;49.882;8.664;2023-07-24T14:25:39;13.63;;;6.83;;
13085;SDS011;6609;49.882;8.664;2023-07-24T14:28:06;9.77;;;5.57;;
13085;SDS011;6609;49.882;8.664;2023-07-24T14:30:33;11.37;;;5.53;;
13085;SDS011;6609;49.882;8.664;2023-07-24T14:33:00;10.40;;;5.30;;
13085;SDS011;6609;49.882;8.664;2023-07-24T14:35:28;9.77;;;5.13;;
13085;SDS011;6609;49.882;8.664;2023-07-24T14:37:55;11.47;;;5.67;;
13085;SDS011;6609;49.882;8.664;2023-07-24T14:40:22;10.47;;;6.00;;
13085;SDS011;6609;49.882;8.664;2023-07-24T14:42:49;12.70;;;6.83;;
13085;SDS011;6609;49.882;8.664;2023-07-24T14:45:16;10.03;;;5.50;;
13085;SDS011;6609;49.882;8.664;2023-07-24T14:47:43;10.37;;;6.03;;
13085;SDS011;6609;49.882;8.664;2023-07-24T14:50:10;11.13;;;5.83;;
13085;SDS011;6609;49.882;8.664;2023-07-24T14:52:39;12.27;;;6.07;;
13085;SDS011;6609;49.882;8.664;2023-07-24T14:55:06;8.80;;;5.77;;
13085;SDS011;6609;49.882;8.664;2023-07-24T14:57:33;8.90;;;4.93;;